sensor_id;sensor_type;location;lat;lon;timestamp;pressure;altitude;pressure_sealevel;temperature;humidity
63006;BME280;53704;52.532;6.426;2023-10-08T00:00:48;102190.88;;;16.77;100.00
63006;BME280;53704;52.532;6.426;2023-10-08T00:03:18;102200.06;;;16.85;100.00
63006;BME280;53704;52.532;6.426;2023-10-08T00:05:46;102203.47;;;16.87;100.00
63006;BME280;53704;52.532;6.426;2023-10-08T00:08:12;102206.00;;;16.80;100.00
63006;BME280;53704;52.532;6.426;2023-10-08T00:10:42;102214.34;;;16.78;100.00
63006;BME280;53704;52.532;6.426;2023-10-08T00:13:13;102229.47;;;16.81;100.00
63006;BME280;53704;52.532;6.426;2023-10-08T00:15:42;102239.66;;;16.79;100.00
63006;BME280;53704;52.532;6.426;2023-10-08T00:18:22;102236.63;;;16.90;100.00
63006;BME280;53704;52.532;6.426;2023-10-08T00:20:49;102242.03;;;16.74;100.00
63006;BME280;53704;52.532;6.426;2023-10-08T00:23:34;102220.63;;;16.71;100.00
63006;BME280;53704;52.532;6.426;2023-10-08T00:26:00;102222.00;;;16.50;100.00
63006;BME280;53704;52.532;6.426;2023-10-08T00:28:30;102247.28;;;16.42;100.00
63006;BME280;53704;52.532;6.426;2023-10-08T00:31:02;102251.88;;;16.42;100.00
63006;BME280;53704;52.532;6.426;2023-10-08T00:33:36;102236.25;;;16.52;100.00
63006;BME280;53704;52.532;6.426;2023-10-08T00:36:02;102236.09;;;16.37;100.00
63006;BME280;53704;52.532;6.426;2023-10-08T00:38:46;102248.13;;;16.35;100.00
63006;BME280;53704;52.532;6.426;2023-10-08T00:41:17;102255.59;;;16.24;100.00
63006;BME280;53704;52.532;6.426;2023-10-08T00:43:53;102262.38;;;16.28;100.00
63006;BME280;53704;52.532;6.426;2023-10-08T00:46:22;102260.69;;;16.19;100.00
63006;BME280;53704;52.532;6.426;2023-10-08T00:49:00;102277.69;;;16.30;100.00
63006;BME280;53704;52.532;6.426;2023-10-08T00:51:45;102270.84;;;16.17;100.00
63006;BME280;53704;52.532;6.426;2023-10-08T00:54:12;102270.00;;;16.08;100.00
63006;BME280;53704;52.532;6.426;2023-10-08T00:56:46;102259.47;;;15.71;100.00
63006;BME280;53704;52.532;6.426;2023-10-08T00:59:12;102270.22;;;15.02;100.00
63006;BME280;53704;52.532;6.426;2023-10-08T01:01:39;102262.19;;;14.56;100.00
63006;BME280;53704;52.532;6.426;2023-10-08T01:04:05;102275.72;;;14.66;100.00
63006;BME280;53704;52.532;6.426;2023-10-08T01:06:37;102267.75;;;14.37;100.00
63006;BME280;53704;52.532;6.426;2023-10-08T01:09:05;102264.81;;;14.30;100.00
63006;BME280;53704;52.532;6.426;2023-10-08T01:11:44;102287.25;;;14.22;100.00
63006;BME280;53704;52.532;6.426;2023-10-08T01:14:18;102280.63;;;14.07;100.00
63006;BME280;53704;52.532;6.426;2023-10-08T01:16:47;102265.94;;;13.82;100.00
63006;BME280;53704;52.532;6.426;2023-10-08T01:19:18;102271.56;;;13.70;100.00
63006;BME280;53704;52.532;6.426;2023-10-08T01:21:45;102274.56;;;13.67;100.00
63006;BME280;53704;52.532;6.426;2023-10-08T01:24:10;102263.66;;;13.87;100.00
63006;BME280;53704;52.532;6.426;2023-10-08T01:26:42;102247.25;;;13.61;100.00
63006;BME280;53704;52.532;6.426;2023-10-08T01:29:14;102292.66;;;13.10;100.00
63006;BME280;53704;52.532;6.426;2023-10-08T01:31:46;102313.25;;;13.40;100.00
63006;BME280;53704;52.532;6.426;2023-10-08T01:34:14;102317.09;;;13.28;100.00
63006;BME280;53704;52.532;6.426;2023-10-08T01:36:43;102317.94;;;13.28;100.00
63006;BME280;53704;52.532;6.426;2023-10-08T01:39:11;102309.97;;;13.17;100.00
63006;BME280;53704;52.532;6.426;2023-10-08T01:41:43;102273.47;;;13.03;100.00
63006;BME280;53704;52.532;6.426;2023-10-08T01:44:09;102269.56;;;13.15;100.00
63006;BME280;53704;52.532;6.426;2023-10-08T01:46:35;102318.97;;;13.08;100.00
63006;BME280;53704;52.532;6.426;2023-10-08T01:49:01;102299.94;;;12.80;100.00
63006;BME280;53704;52.532;6.426;2023-10-08T01:51:34;102340.16;;;13.12;100.00
63006;BME280;53704;52.532;6.426;2023-10-08T01:54:04;102356.94;;;13.06;100.00
63006;BME280;53704;52.532;6.426;2023-10-08T01:56:40;102374.03;;;12.87;100.00
63006;BME280;53704;52.532;6.426;2023-10-08T01:59:09;102384.13;;;12.85;100.00
63006;BME280;53704;52.532;6.426;2023-10-08T02:01:37;102387.53;;;12.87;100.00
63006;BME280;53704;52.532;6.426;2023-10-08T02:04:04;102372.00;;;12.70;100.00
63006;BME280;53704;52.532;6.426;2023-10-08T02:06:32;102380.72;;;12.83;100.00
63006;BME280;53704;52.532;6.426;2023-10-08T02:08:57;102374.44;;;12.63;100.00
63006;BME280;53704;52.532;6.426;2023-10-08T02:11:24;102381.41;;;12.75;100.00
63006;BME280;53704;52.532;6.426;2023-10-08T02:13:49;102407.75;;;12.73;100.00
63006;BME280;53704;52.532;6.426;2023-10-08T02:16:20;102397.34;;;12.69;100.00
63006;BME280;53704;52.532;6.426;2023-10-08T02:18:47;102384.25;;;12.74;100.00
63006;BME280;53704;52.532;6.426;2023-10-08T02:21:15;102390.81;;;12.81;100.00
63006;BME280;53704;52.532;6.426;2023-10-08T02:23:40;102386.28;;;12.91;100.00
63006;BME280;53704;52.532;6.426;2023-10-08T02:26:11;102385.44;;;12.81;100.00
63006;BME280;53704;52.532;6.426;2023-10-08T02:28:37;102385.72;;;12.97;100.00
63006;BME280;53704;52.532;6.426;2023-10-08T02:31:04;102384.00;;;13.06;100.00
63006;BME280;53704;52.532;6.426;2023-10-08T02:33:30;102384.00;;;13.06;100.00
63006;BME280;53704;52.532;6.426;2023-10-08T02:35:55;102380.03;;;12.81;100.00
63006;BME280;53704;52.532;6.426;2023-10-08T02:38:21;102372.63;;;13.02;100.00
63006;BME280;53704;52.532;6.426;2023-10-08T02:40:48;102386.56;;;13.17;100.00
63006;BME280;53704;52.532;6.426;2023-10-08T02:43:14;102376.59;;;12.89;100.00
63006;BME280;53704;52.532;6.426;2023-10-08T02:45:41;102388.00;;;12.82;100.00
63006;BME280;53704;52.532;6.426;2023-10-08T02:48:10;102391.09;;;12.78;100.00
63006;BME280;53704;52.532;6.426;2023-10-08T02:50:42;102364.50;;;12.83;100.00
63006;BME280;53704;52.532;6.426;2023-10-08T02:53:08;102368.63;;;12.77;100.00
63006;BME280;53704;52.532;6.426;2023-10-08T02:55:39;102366.94;;;12.76;100.00
63006;BME280;53704;52.532;6.426;2023-10-08T02:58:18;102378.56;;;12.67;100.00
63006;BME280;53704;52.532;6.426;2023-10-08T03:00:48;102386.06;;;12.54;100.00
63006;BME280;53704;52.532;6.426;2023-10-08T03:03:14;102391.03;;;12.48;100.00
63006;BME280;53704;52.532;6.426;2023-10-08T03:05:52;102390.94;;;12.70;100.00
63006;BME280;53704;52.532;6.426;2023-10-08T03:08:19;102386.81;;;12.75;100.00
63006;BME280;53704;52.532;6.426;2023-10-08T03:10:47;102396.22;;;12.81;100.00
63006;BME280;53704;52.532;6.426;2023-10-08T03:13:17;102380.72;;;12.93;100.00
63006;BME280;53704;52.532;6.426;2023-10-08T03:15:43;102374.63;;;12.81;100.00
63006;BME280;53704;52.532;6.426;2023-10-08T03:18:23;102396.19;;;12.61;100.00
63006;BME280;53704;52.532;6.426;2023-10-08T03:20:49;102386.97;;;12.74;100.00
63006;BME280;53704;52.532;6.426;2023-10-08T03:23:16;102382.81;;;12.70;100.00
63006;BME280;53704;52.532;6.426;2023-10-08T03:25:59;102382.41;;;12.64;100.00
63006;BME280;53704;52.532;6.426;2023-10-08T03:28:47;102376.72;;;12.87;100.00
63006;BME280;53704;52.532;6.426;2023-10-08T03:31:22;102346.00;;;12.69;100.00
63006;BME280;53704;52.532;6.426;2023-10-08T03:33:57;102366.31;;;12.53;100.00
63006;BME280;53704;52.532;6.426;2023-10-08T03:36:22;102400.72;;;12.51;100.00
63006;BME280;53704;52.532;6.426;2023-10-08T03:38:59;102408.00;;;12.70;100.00
63006;BME280;53704;52.532;6.426;2023-10-08T03:41:34;102413.94;;;12.54;100.00
63006;BME280;53704;52.532;6.426;2023-10-08T03:44:05;102405.84;;;12.54;100.00
63006;BME280;53704;52.532;6.426;2023-10-08T03:46:32;102433.03;;;12.62;100.00
63006;BME280;53704;52.532;6.426;2023-10-08T03:49:05;102428.19;;;12.76;100.00
63006;BME280;53704;52.532;6.426;2023-10-08T03:51:37;102426.78;;;12.62;100.00
63006;BME280;53704;52.532;6.426;2023-10-08T03:54:08;102421.25;;;12.73;100.00
63006;BME280;53704;52.532;6.426;2023-10-08T03:56:40;102427.97;;;12.38;100.00
63006;BME280;53704;52.532;6.426;2023-10-08T03:59:11;102440.56;;;12.69;100.00
63006;BME280;53704;52.532;6.426;2023-10-08T04:01:45;102449.50;;;12.59;100.00
63006;BME280;53704;52.532;6.426;2023-10-08T04:04:11;102461.28;;;12.58;100.00
63006;BME280;53704;52.532;6.426;2023-10-08T04:06:42;102464.47;;;12.63;100.00
63006;BME280;53704;52.532;6.426;2023-10-08T04:09:15;102471.53;;;12.55;100.00
63006;BME280;53704;52.532;6.426;2023-10-08T04:11:51;102470.44;;;12.67;100.00
63006;BME280;53704;52.532;6.426;2023-10-08T04:14:24;102484.47;;;12.51;100.00
63006;BME280;53704;52.532;6.426;2023-10-08T04:16:51;102492.53;;;12.41;100.00
63006;BME280;53704;52.532;6.426;2023-10-08T04:19:18;102477.38;;;12.60;100.00
63006;BME280;53704;52.532;6.426;2023-10-08T04:21:44;102473.16;;;12.77;100.00
63006;BME280;53704;52.532;6.426;2023-10-08T04:24:11;102475.28;;;12.63;100.00
63006;BME280;53704;52.532;6.426;2023-10-08T04:26:40;102475.94;;;12.56;100.00
63006;BME280;53704;52.532;6.426;2023-10-08T04:29:06;102512.19;;;12.53;100.00
63006;BME280;53704;52.532;6.426;2023-10-08T04:31:35;102509.66;;;12.61;100.00
63006;BME280;53704;52.532;6.426;2023-10-08T04:34:12;102495.28;;;12.51;100.00
63006;BME280;53704;52.532;6.426;2023-10-08T04:36:48;102486.06;;;12.63;100.00
63006;BME280;53704;52.532;6.426;2023-10-08T04:39:23;102474.09;;;12.56;100.00
63006;BME280;53704;52.532;6.426;2023-10-08T04:41:57;102466.09;;;12.45;100.00
63006;BME280;53704;52.532;6.426;2023-10-08T04:44:26;102469.50;;;12.47;100.00
63006;BME280;53704;52.532;6.426;2023-10-08T04:46:51;102459.06;;;12.63;100.00
63006;BME280;53704;52.532;6.426;2023-10-08T04:49:18;102456.31;;;12.54;100.00
63006;BME280;53704;52.532;6.426;2023-10-08T04:52:05;102463.31;;;12.66;100.00
63006;BME280;53704;52.532;6.426;2023-10-08T04:54:38;102464.75;;;12.60;100.00
63006;BME280;53704;52.532;6.426;2023-10-08T04:57:07;102486.88;;;12.54;100.00
63006;BME280;53704;52.532;6.426;2023-10-08T04:59:32;102507.00;;;12.40;100.00
63006;BME280;53704;52.532;6.426;2023-10-08T05:02:03;102516.13;;;12.80;100.00
63006;BME280;53704;52.532;6.426;2023-10-08T05:04:50;102513.44;;;12.80;100.00
63006;BME280;53704;52.532;6.426;2023-10-08T05:07:34;102517.75;;;12.61;100.00
63006;BME280;53704;52.532;6.426;2023-10-08T05:10:25;102518.19;;;12.66;100.00
63006;BME280;53704;52.532;6.426;2023-10-08T05:12:52;102515.63;;;12.65;100.00
63006;BME280;53704;52.532;6.426;2023-10-08T05:15:41;102521.47;;;12.60;100.00
63006;BME280;53704;52.532;6.426;2023-10-08T05:18:15;102509.75;;;12.50;100.00
63006;BME280;53704;52.532;6.426;2023-10-08T05:20:40;102498.50;;;12.45;100.00
63006;BME280;53704;52.532;6.426;2023-10-08T05:23:17;102512.53;;;12.39;100.00
63006;BME280;53704;52.532;6.426;2023-10-08T05:26:06;102524.34;;;12.38;100.00
63006;BME280;53704;52.532;6.426;2023-10-08T05:28:38;102528.94;;;12.47;100.00
63006;BME280;53704;52.532;6.426;2023-10-08T05:31:22;102532.63;;;12.77;100.00
63006;BME280;53704;52.532;6.426;2023-10-08T05:34:02;102535.41;;;12.65;100.00
63006;BME280;53704;52.532;6.426;2023-10-08T05:36:42;102534.13;;;12.70;100.00
63006;BME280;53704;52.532;6.426;2023-10-08T05:39:37;102533.66;;;12.55;100.00
63006;BME280;53704;52.532;6.426;2023-10-08T05:42:08;102541.09;;;12.62;100.00
63006;BME280;53704;52.532;6.426;2023-10-08T05:44:46;102541.75;;;12.55;100.00
63006;BME280;53704;52.532;6.426;2023-10-08T05:47:30;102548.66;;;12.69;100.00
63006;BME280;53704;52.532;6.426;2023-10-08T05:49:59;102564.56;;;12.62;100.00
63006;BME280;53704;52.532;6.426;2023-10-08T05:52:46;102578.56;;;12.77;100.00
63006;BME280;53704;52.532;6.426;2023-10-08T05:55:30;102555.56;;;12.82;100.00
63006;BME280;53704;52.532;6.426;2023-10-08T05:58:04;102560.63;;;12.76;100.00
63006;BME280;53704;52.532;6.426;2023-10-08T06:00:41;102561.84;;;12.93;100.00
63006;BME280;53704;52.532;6.426;2023-10-08T06:03:18;102567.69;;;13.08;100.00
63006;BME280;53704;52.532;6.426;2023-10-08T06:06:10;102563.06;;;13.19;100.00
63006;BME280;53704;52.532;6.426;2023-10-08T06:08:39;102578.09;;;13.02;100.00
63006;BME280;53704;52.532;6.426;2023-10-08T06:11:23;102574.91;;;12.88;100.00
63006;BME280;53704;52.532;6.426;2023-10-08T06:14:04;102574.81;;;12.68;100.00
63006;BME280;53704;52.532;6.426;2023-10-08T06:16:39;102582.19;;;12.66;100.00
63006;BME280;53704;52.532;6.426;2023-10-08T06:19:10;102573.91;;;12.58;100.00
63006;BME280;53704;52.532;6.426;2023-10-08T06:21:38;102564.06;;;12.78;100.00
63006;BME280;53704;52.532;6.426;2023-10-08T06:24:06;102539.78;;;12.88;100.00
63006;BME280;53704;52.532;6.426;2023-10-08T06:26:39;102540.72;;;12.77;100.00
63006;BME280;53704;52.532;6.426;2023-10-08T06:29:11;102559.69;;;12.87;100.00
63006;BME280;53704;52.532;6.426;2023-10-08T06:31:56;102560.59;;;12.66;100.00
63006;BME280;53704;52.532;6.426;2023-10-08T06:34:23;102557.13;;;12.54;100.00
63006;BME280;53704;52.532;6.426;2023-10-08T06:36:53;102548.94;;;12.65;100.00
63006;BME280;53704;52.532;6.426;2023-10-08T06:39:25;102549.97;;;12.43;100.00
63006;BME280;53704;52.532;6.426;2023-10-08T06:41:59;102554.56;;;12.53;100.00
63006;BME280;53704;52.532;6.426;2023-10-08T06:44:24;102559.44;;;12.38;100.00
63006;BME280;53704;52.532;6.426;2023-10-08T06:46:51;102567.53;;;12.38;100.00
63006;BME280;53704;52.532;6.426;2023-10-08T06:49:21;102582.28;;;12.55;100.00
63006;BME280;53704;52.532;6.426;2023-10-08T06:51:49;102598.25;;;12.37;100.00
63006;BME280;53704;52.532;6.426;2023-10-08T06:54:16;102608.50;;;12.64;100.00
63006;BME280;53704;52.532;6.426;2023-10-08T06:56:46;102623.16;;;12.40;100.00
63006;BME280;53704;52.532;6.426;2023-10-08T06:59:15;102626.13;;;12.37;100.00
63006;BME280;53704;52.532;6.426;2023-10-08T07:01:42;102646.63;;;12.40;100.00
63006;BME280;53704;52.532;6.426;2023-10-08T07:04:11;102645.50;;;12.63;100.00
63006;BME280;53704;52.532;6.426;2023-10-08T07:06:41;102612.06;;;12.64;100.00
63006;BME280;53704;52.532;6.426;2023-10-08T07:09:10;102615.03;;;12.61;100.00
63006;BME280;53704;52.532;6.426;2023-10-08T07:11:51;102600.72;;;12.71;100.00
63006;BME280;53704;52.532;6.426;2023-10-08T07:14:21;102607.09;;;12.70;100.00
63006;BME280;53704;52.532;6.426;2023-10-08T07:16:48;102602.66;;;12.90;100.00
63006;BME280;53704;52.532;6.426;2023-10-08T07:19:17;102619.06;;;12.67;100.00
63006;BME280;53704;52.532;6.426;2023-10-08T07:21:47;102640.50;;;12.90;100.00
63006;BME280;53704;52.532;6.426;2023-10-08T07:24:15;102637.56;;;13.02;100.00
63006;BME280;53704;52.532;6.426;2023-10-08T07:26:41;102649.66;;;12.77;100.00
63006;BME280;53704;52.532;6.426;2023-10-08T07:29:13;102662.63;;;13.05;100.00
63006;BME280;53704;52.532;6.426;2023-10-08T07:31:43;102648.41;;;13.12;100.00
63006;BME280;53704;52.532;6.426;2023-10-08T07:34:13;102670.31;;;13.09;100.00
63006;BME280;53704;52.532;6.426;2023-10-08T07:36:43;102665.75;;;13.00;100.00
63006;BME280;53704;52.532;6.426;2023-10-08T07:39:09;102639.44;;;13.12;100.00
63006;BME280;53704;52.532;6.426;2023-10-08T07:41:49;102614.09;;;13.03;100.00
63006;BME280;53704;52.532;6.426;2023-10-08T07:44:15;102619.06;;;13.08;100.00
63006;BME280;53704;52.532;6.426;2023-10-08T07:46:40;102607.25;;;12.99;100.00
63006;BME280;53704;52.532;6.426;2023-10-08T07:49:06;102607.06;;;12.91;100.00
63006;BME280;53704;52.532;6.426;2023-10-08T07:51:32;102640.34;;;12.60;100.00
63006;BME280;53704;52.532;6.426;2023-10-08T07:53:57;102654.50;;;12.74;100.00
63006;BME280;53704;52.532;6.426;2023-10-08T11:48:43;102631.31;;;16.08;100.00
63006;BME280;53704;52.532;6.426;2023-10-08T11:51:12;102627.25;;;15.95;100.00
63006;BME280;53704;52.532;6.426;2023-10-08T11:53:42;102609.81;;;15.97;100.00
63006;BME280;53704;52.532;6.426;2023-10-08T11:56:10;102610.84;;;16.22;100.00
63006;BME280;53704;52.532;6.426;2023-10-08T11:58:39;102621.66;;;16.32;100.00
63006;BME280;53704;52.532;6.426;2023-10-08T12:01:06;102620.91;;;16.48;100.00
63006;BME280;53704;52.532;6.426;2023-10-08T12:03:32;102613.75;;;16.99;100.00
63006;BME280;53704;52.532;6.426;2023-10-08T12:06:00;102618.78;;;16.86;100.00
63006;BME280;53704;52.532;6.426;2023-10-08T12:08:26;102609.84;;;16.23;100.00
63006;BME280;53704;52.532;6.426;2023-10-08T12:10:53;102603.31;;;16.60;100.00
63006;BME280;53704;52.532;6.426;2023-10-08T12:13:25;102591.59;;;16.86;100.00
63006;BME280;53704;52.532;6.426;2023-10-08T12:15:56;102588.22;;;16.14;100.00
63006;BME280;53704;52.532;6.426;2023-10-08T12:18:32;102580.09;;;16.40;100.00
63006;BME280;53704;52.532;6.426;2023-10-08T12:21:04;102580.84;;;16.58;100.00
63006;BME280;53704;52.532;6.426;2023-10-08T12:23:30;102570.88;;;16.93;100.00
63006;BME280;53704;52.532;6.426;2023-10-08T12:25:58;102577.16;;;17.36;100.00
63006;BME280;53704;52.532;6.426;2023-10-08T12:28:26;102573.81;;;17.00;100.00
63006;BME280;53704;52.532;6.426;2023-10-08T12:30:54;102571.78;;;17.02;100.00
63006;BME280;53704;52.532;6.426;2023-10-08T12:33:24;102572.28;;;17.06;100.00
63006;BME280;53704;52.532;6.426;2023-10-08T12:35:51;102570.94;;;17.10;100.00
63006;BME280;53704;52.532;6.426;2023-10-08T12:38:19;102576.25;;;17.20;100.00
63006;BME280;53704;52.532;6.426;2023-10-08T12:40:51;102579.00;;;17.36;100.00
63006;BME280;53704;52.532;6.426;2023-10-08T12:43:20;102568.50;;;17.41;100.00
63006;BME280;53704;52.532;6.426;2023-10-08T12:45:47;102571.97;;;17.17;100.00
63006;BME280;53704;52.532;6.426;2023-10-08T12:48:25;102573.78;;;17.51;100.00
63006;BME280;53704;52.532;6.426;2023-10-08T12:50:55;102574.03;;;17.90;100.00
63006;BME280;53704;52.532;6.426;2023-10-08T12:53:28;102584.75;;;17.92;100.00
63006;BME280;53704;52.532;6.426;2023-10-08T12:56:09;102579.59;;;17.05;100.00
63006;BME280;53704;52.532;6.426;2023-10-08T12:58:42;102586.47;;;17.26;100.00
63006;BME280;53704;52.532;6.426;2023-10-08T13:01:19;102585.38;;;17.02;100.00
63006;BME280;53704;52.532;6.426;2023-10-08T13:03:46;102588.88;;;17.37;100.00
63006;BME280;53704;52.532;6.426;2023-10-08T13:06:19;102591.09;;;17.33;100.00
63006;BME280;53704;52.532;6.426;2023-10-08T13:08:52;102576.56;;;16.82;100.00
63006;BME280;53704;52.532;6.426;2023-10-08T13:11:22;102580.38;;;17.32;100.00
63006;BME280;53704;52.532;6.426;2023-10-08T13:13:54;102572.88;;;17.26;100.00
63006;BME280;53704;52.532;6.426;2023-10-08T13:16:22;102580.94;;;17.60;100.00
63006;BME280;53704;52.532;6.426;2023-10-08T13:18:49;102577.41;;;17.17;100.00
63006;BME280;53704;52.532;6.426;2023-10-08T13:21:14;102571.69;;;16.59;100.00
63006;BME280;53704;52.532;6.426;2023-10-08T13:23:40;102564.47;;;17.11;100.00
63006;BME280;53704;52.532;6.426;2023-10-08T13:26:06;102565.84;;;17.07;100.00
63006;BME280;53704;52.532;6.426;2023-10-08T13:28:36;102577.50;;;17.42;100.00
63006;BME280;53704;52.532;6.426;2023-10-08T13:31:02;102589.72;;;16.34;100.00
63006;BME280;53704;52.532;6.426;2023-10-08T13:33:36;102591.19;;;17.15;100.00
63006;BME280;53704;52.532;6.426;2023-10-08T13:36:07;102605.50;;;17.17;100.00
63006;BME280;53704;52.532;6.426;2023-10-08T13:38:37;102588.06;;;16.94;100.00
63006;BME280;53704;52.532;6.426;2023-10-08T13:41:06;102596.34;;;17.27;100.00
63006;BME280;53704;52.532;6.426;2023-10-08T13:43:41;102596.06;;;16.95;100.00
63006;BME280;53704;52.532;6.426;2023-10-08T13:46:07;102589.78;;;17.54;100.00
63006;BME280;53704;52.532;6.426;2023-10-08T13:48:42;102586.41;;;17.77;100.00
63006;BME280;53704;52.532;6.426;2023-10-08T13:51:12;102570.28;;;17.16;100.00
63006;BME280;53704;52.532;6.426;2023-10-08T13:54:03;102574.19;;;17.13;100.00
63006;BME280;53704;52.532;6.426;2023-10-08T13:56:34;102581.38;;;17.31;100.00
63006;BME280;53704;52.532;6.426;2023-10-08T13:59:03;102574.38;;;17.20;100.00
63006;BME280;53704;52.532;6.426;2023-10-08T14:01:33;102568.25;;;17.26;100.00
63006;BME280;53704;52.532;6.426;2023-10-08T14:04:00;102546.50;;;17.34;100.00
63006;BME280;53704;52.532;6.426;2023-10-08T14:06:33;102553.34;;;17.39;100.00
63006;BME280;53704;52.532;6.426;2023-10-08T14:09:00;102523.88;;;17.17;100.00
63006;BME280;53704;52.532;6.426;2023-10-08T14:11:26;102489.19;;;16.77;100.00
63006;BME280;53704;52.532;6.426;2023-10-08T14:13:59;102530.75;;;16.61;100.00
63006;BME280;53704;52.532;6.426;2023-10-08T14:16:28;102546.28;;;16.42;100.00
63006;BME280;53704;52.532;6.426;2023-10-08T14:18:57;102549.19;;;16.75;100.00
63006;BME280;53704;52.532;6.426;2023-10-08T14:21:26;102567.34;;;17.01;100.00
63006;BME280;53704;52.532;6.426;2023-10-08T14:24:02;102596.78;;;17.06;100.00
63006;BME280;53704;52.532;6.426;2023-10-08T14:26:30;102598.88;;;16.59;100.00
63006;BME280;53704;52.532;6.426;2023-10-08T14:29:03;102596.63;;;17.15;100.00
63006;BME280;53704;52.532;6.426;2023-10-08T14:31:43;102579.66;;;17.30;100.00
63006;BME280;53704;52.532;6.426;2023-10-08T14:34:16;102562.31;;;17.23;100.00
63006;BME280;53704;52.532;6.426;2023-10-08T14:36:46;102553.31;;;17.22;100.00
63006;BME280;53704;52.532;6.426;2023-10-08T14:39:30;102541.91;;;16.50;100.00
63006;BME280;53704;52.532;6.426;2023-10-08T14:42:14;102515.31;;;16.70;100.00
63006;BME280;53704;52.532;6.426;2023-10-08T14:44:59;102540.34;;;16.47;100.00
63006;BME280;53704;52.532;6.426;2023-10-08T14:47:25;102533.66;;;16.68;100.00
63006;BME280;53704;52.532;6.426;2023-10-08T14:49:50;102515.56;;;16.50;100.00
63006;BME280;53704;52.532;6.426;2023-10-08T14:52:16;102524.88;;;16.74;100.00
63006;BME280;53704;52.532;6.426;2023-10-08T14:54:42;102512.69;;;16.25;100.00
63006;BME280;53704;52.532;6.426;2023-10-08T14:57:08;102506.28;;;16.00;100.00
63006;BME280;53704;52.532;6.426;2023-10-08T14:59:35;102507.44;;;16.58;100.00
63006;BME280;53704;52.532;6.426;2023-10-08T15:02:00;102518.41;;;16.14;100.00
63006;BME280;53704;52.532;6.426;2023-10-08T15:04:26;102516.56;;;16.49;100.00
63006;BME280;53704;52.532;6.426;2023-10-08T15:06:56;102519.94;;;16.43;100.00
63006;BME280;53704;52.532;6.426;2023-10-08T15:09:22;102515.91;;;16.47;100.00
63006;BME280;53704;52.532;6.426;2023-10-08T15:11:52;102525.19;;;16.10;100.00
63006;BME280;53704;52.532;6.426;2023-10-08T15:14:21;102518.88;;;16.62;100.00
63006;BME280;53704;52.532;6.426;2023-10-08T15:16:50;102514.00;;;16.74;100.00
63006;BME280;53704;52.532;6.426;2023-10-08T15:19:20;102503.44;;;16.71;100.00
63006;BME280;53704;52.532;6.426;2023-10-08T15:21:50;102494.59;;;16.34;100.00
63006;BME280;53704;52.532;6.426;2023-10-08T15:24:19;102492.34;;;15.77;100.00
63006;BME280;53704;52.532;6.426;2023-10-08T15:26:47;102491.41;;;15.86;100.00
63006;BME280;53704;52.532;6.426;2023-10-08T15:29:13;102481.53;;;16.38;100.00
63006;BME280;53704;52.532;6.426;2023-10-08T15:31:39;102485.22;;;16.28;100.00
63006;BME280;53704;52.532;6.426;2023-10-08T15:34:06;102480.38;;;16.14;100.00
63006;BME280;53704;52.532;6.426;2023-10-08T15:36:31;102479.97;;;15.83;100.00
63006;BME280;53704;52.532;6.426;2023-10-08T15:38:58;102478.88;;;15.94;100.00
63006;BME280;53704;52.532;6.426;2023-10-08T15:41:24;102481.09;;;16.16;100.00
63006;BME280;53704;52.532;6.426;2023-10-08T15:43:52;102467.22;;;16.27;100.00
63006;BME280;53704;52.532;6.426;2023-10-08T15:46:19;102467.84;;;15.95;100.00
63006;BME280;53704;52.532;6.426;2023-10-08T15:48:45;102465.25;;;16.12;100.00
63006;BME280;53704;52.532;6.426;2023-10-08T15:51:11;102454.31;;;16.03;100.00
63006;BME280;53704;52.532;6.426;2023-10-08T15:53:37;102449.75;;;16.04;100.00
63006;BME280;53704;52.532;6.426;2023-10-08T15:56:02;102449.31;;;15.90;100.00
63006;BME280;53704;52.532;6.426;2023-10-08T15:58:28;102444.66;;;16.01;100.00
63006;BME280;53704;52.532;6.426;2023-10-08T16:00:53;102437.50;;;16.00;100.00
63006;BME280;53704;52.532;6.426;2023-10-08T16:03:19;102441.72;;;15.76;100.00
63006;BME280;53704;52.532;6.426;2023-10-08T16:05:45;102439.47;;;15.71;100.00
63006;BME280;53704;52.532;6.426;2023-10-08T16:08:15;102442.47;;;15.78;100.00
63006;BME280;53704;52.532;6.426;2023-10-08T16:10:43;102436.00;;;15.79;100.00
63006;BME280;53704;52.532;6.426;2023-10-08T16:13:08;102437.09;;;15.68;100.00
63006;BME280;53704;52.532;6.426;2023-10-08T16:15:39;102434.22;;;15.88;100.00
63006;BME280;53704;52.532;6.426;2023-10-08T16:18:06;102434.09;;;15.53;100.00
63006;BME280;53704;52.532;6.426;2023-10-08T16:20:32;102432.38;;;15.70;100.00
63006;BME280;53704;52.532;6.426;2023-10-08T16:22:57;102429.25;;;15.83;100.00
63006;BME280;53704;52.532;6.426;2023-10-08T16:25:23;102430.38;;;15.54;100.00
63006;BME280;53704;52.532;6.426;2023-10-08T16:27:51;102429.88;;;15.59;100.00
63006;BME280;53704;52.532;6.426;2023-10-08T16:30:23;102422.50;;;15.69;100.00
63006;BME280;53704;52.532;6.426;2023-10-08T16:32:52;102420.63;;;15.70;100.00
63006;BME280;53704;52.532;6.426;2023-10-08T16:35:18;102420.31;;;15.73;100.00
63006;BME280;53704;52.532;6.426;2023-10-08T16:37:49;102420.47;;;15.71;100.00
63006;BME280;53704;52.532;6.426;2023-10-08T16:40:15;102427.00;;;15.16;100.00
63006;BME280;53704;52.532;6.426;2023-10-08T16:42:44;102421.19;;;15.29;100.00
63006;BME280;53704;52.532;6.426;2023-10-08T16:45:09;102425.66;;;15.56;100.00
63006;BME280;53704;52.532;6.426;2023-10-08T16:47:35;102418.94;;;15.25;100.00
63006;BME280;53704;52.532;6.426;2023-10-08T16:50:01;102421.84;;;15.49;100.00